Rechercher aéroport 
image banner adimage banner ad
image banner ad

SEJS - Joya De Los Sachas

Situé à , Ecuador

ICAO - , IATA -

Données fournies par Airmate  

Information générale

Coordonnées: S0°19'42" W76°52'45"
Élévation : feet MSL.
 
Voir autres Aéroports à Orellana

Données opérationnelles

Accessible au public
Heure actuelle UTC:
Heure actuelle locale:
METAR: SECO 201400Z 15002KT 9999 FEW020 30/24 Q1013 RMK A2991
Voir NOTAMs / SUP AIP / TFR affectant cet aéroport [VIEW]
Fréquences de communication: [VIEW]

Pistes:

Identifiant RWYQFULongueur (ft)Largeur (ft)SurfaceLDA (ft)
0400
2200

Coordonnées de l'aéroport

Adresse: Ecuador

Vue satellite de SEJS